USCGC Elm — NRPK — position and weather

sailwx.info

Track history (hours):
 
Tides and Currents Weather Stations Pressure Air Temp Water Temp Dewpoint Dewpoint Depression Visibility Wind Speed Wind Dir Waves Ship Positions

USCGC Elm

Last reported at 2017-Feb-17 19:26 UTC. Time now 2017-Feb-26 23:51 UTC.
Position N 34°42' W 076°41'.
Warning: this ship's position is 9 days out of date.

Length 68 m; draft 4 m.

Type: Military. MMSI: 366951000.

Date/timePositionNaut miles runAvg speedWind from/ knotsBaromVisibWave heightAir tempDewpointWater temp
2017-Feb-17 19:26N 34°42' W 076°41'0 0.0
2017-Feb-17 18:32N 34°42' W 076°41'0 0.0
2017-Feb-17 17:32N 34°42' W 076°41'0 0.0
2017-Feb-17 16:32N 34°42' W 076°41'0 0.0
2017-Feb-17 15:32N 34°42' W 076°41'0 0.0
2017-Feb-17 14:32N 34°42' W 076°41'0 0.0
2017-Feb-17 13:32N 34°42' W 076°41'0 0.0
2017-Feb-17 12:32N 34°42' W 076°41'0 0.0
2017-Feb-17 11:28N 34°42' W 076°41'0 0.0
2017-Feb-17 10:32N 34°42' W 076°41'0 0.0
2017-Feb-17 09:32N 34°42' W 076°41'0 0.0
2017-Feb-17 08:32N 34°42' W 076°41'0 0.0
2017-Feb-17 07:32N 34°42' W 076°41'0 0.0
2017-Feb-17 06:32N 34°42' W 076°41'0 0.0
2017-Feb-17 05:32N 34°42' W 076°41'0 0.0
2017-Feb-17 04:32N 34°42' W 076°41'0 0.0
2017-Feb-17 03:32N 34°42' W 076°41'0 0.0
2017-Feb-17 02:32N 34°42' W 076°41'0 0.0
2017-Feb-17 01:32N 34°42' W 076°41'0 0.0
2017-Feb-17 00:32N 34°42' W 076°41'0 0.0
2017-Feb-16 23:32N 34°42' W 076°41'0 0.0
2017-Feb-16 22:32N 34°42' W 076°41'0 0.0
2017-Feb-16 21:32N 34°42' W 076°41'0 0.0
2017-Feb-16 20:32N 34°42' W 076°41'0 0.0
2017-Feb-16 19:23N 34°42' W 076°41'0 0.0
2017-Feb-16 18:32N 34°42' W 076°41'0 0.0
2017-Feb-16 17:32N 34°42' W 076°41'0 0.0
2017-Feb-16 16:32N 34°42' W 076°41'0 0.0
2017-Feb-16 15:32N 34°42' W 076°41'0 0.0
2017-Feb-16 14:32N 34°42' W 076°41'0 0.0
2017-Feb-16 13:32N 34°42' W 076°41'0 0.0
2017-Feb-16 12:31N 34°42' W 076°41'0 0.0
2017-Feb-16 11:30N 34°42' W 076°41'0 0.0
2017-Feb-16 10:31N 34°42' W 076°41'0 0.0
2017-Feb-16 09:31N 34°42' W 076°41'0 0.0
2017-Feb-16 08:31N 34°42' W 076°41'0 0.0
2017-Feb-16 07:31N 34°42' W 076°41'0 0.0
2017-Feb-16 06:31N 34°42' W 076°41'0 0.0
2017-Feb-16 05:31N 34°42' W 076°41'0 0.0
2017-Feb-16 04:31N 34°42' W 076°41'0 0.0
2017-Feb-16 03:31N 34°42' W 076°41'0 0.0
2017-Feb-16 02:31N 34°42' W 076°41'0 0.0
2017-Feb-16 01:31N 34°42' W 076°41'0 0.0
2017-Feb-16 00:28N 34°42' W 076°41'0 0.0
2017-Feb-15 23:31N 34°42' W 076°41'0 0.0
2017-Feb-15 22:31N 34°42' W 076°41'0 0.0
2017-Feb-15 21:31N 34°42' W 076°41'0 0.0
2017-Feb-15 20:31N 34°42' W 076°41'0 0.0
2017-Feb-15 19:31N 34°42' W 076°41'0 0.0
2017-Feb-15 18:25N 34°42' W 076°41'0 0.0
2017-Feb-15 17:31N 34°42' W 076°41'0 0.0
2017-Feb-15 16:31N 34°42' W 076°41'0 0.0
2017-Feb-15 15:32N 34°42' W 076°41'0 0.0
2017-Feb-15 14:29N 34°42' W 076°41'0 0.0
2017-Feb-15 13:32N 34°42' W 076°41'0 0.0
2017-Feb-15 12:32N 34°42' W 076°41'0 0.0
2017-Feb-15 11:32N 34°42' W 076°41'0 0.0
2017-Feb-15 10:32N 34°42' W 076°41'0 0.0
2017-Feb-15 09:32N 34°42' W 076°41'0 0.0
2017-Feb-15 08:32N 34°42' W 076°41'0 0.0
2017-Feb-15 07:32N 34°42' W 076°41'0 0.0
2017-Feb-15 06:32N 34°42' W 076°41'0 0.0
2017-Feb-15 05:32N 34°42' W 076°41'0 0.0
2017-Feb-15 04:32N 34°42' W 076°41'0 0.0
2017-Feb-15 03:32N 34°42' W 076°41'0 0.0
2017-Feb-15 02:32N 34°42' W 076°41'0 0.0
2017-Feb-15 01:32N 34°42' W 076°41'0 0.0
2017-Feb-15 00:32N 34°42' W 076°41'0 0.0
2017-Feb-14 23:32N 34°42' W 076°41'0 0.0
2017-Feb-14 22:32N 34°42' W 076°41'0 0.0
2017-Feb-14 21:32N 34°42' W 076°41'0 0.0
2017-Feb-14 20:32N 34°42' W 076°41'1 1.5
2017-Feb-14 19:33N 34°41' W 076°40'1212.2
2017-Feb-14 18:33N 34°29' W 076°44'1 0.6
2017-Feb-14 17:33N 34°28' W 076°44'3 2.7
2017-Feb-14 16:33N 34°31' W 076°44'3 3.4
2017-Feb-14 15:33N 34°28' W 076°45'1010.5
2017-Feb-14 14:33N 34°38' W 076°42'4 4.2
2017-Feb-14 13:32N 34°42' W 076°41'0 0.0
2017-Feb-14 12:32N 34°42' W 076°41'0 0.0
2017-Feb-14 11:32N 34°42' W 076°41'0 0.0
2017-Feb-14 10:32N 34°42' W 076°41'0 0.0
2017-Feb-14 09:29N 34°42' W 076°41'0 0.0
2017-Feb-14 08:32N 34°42' W 076°41'0 0.0
2017-Feb-14 07:32N 34°42' W 076°41'0 0.0
2017-Feb-14 06:32N 34°42' W 076°41'0 0.0
2017-Feb-14 05:32N 34°42' W 076°41'0 0.0
2017-Feb-14 04:32N 34°42' W 076°41'0 0.0
2017-Feb-14 03:31N 34°42' W 076°41'0 0.0
2017-Feb-14 02:31N 34°42' W 076°41'0 0.0
2017-Feb-14 01:32N 34°42' W 076°41'0 0.0
2017-Feb-14 00:32N 34°42' W 076°41'0 0.0
2017-Feb-13 23:32N 34°42' W 076°41'0 0.0
2017-Feb-13 22:32N 34°42' W 076°41'0 0.0
2017-Feb-13 21:32N 34°42' W 076°41'0 0.0
2017-Feb-13 20:32N 34°42' W 076°41'0 0.0
2017-Feb-13 19:32N 34°42' W 076°41'0 0.0
2017-Feb-13 18:32N 34°42' W 076°41'0 0.0
2017-Feb-13 17:32N 34°42' W 076°41'0 0.0
2017-Feb-13 16:32N 34°42' W 076°41'0 0.0
2017-Feb-13 15:31N 34°42' W 076°41'0 0.0
2017-Feb-13 14:32N 34°42' W 076°41'0 0.0
2017-Feb-13 13:32N 34°42' W 076°41'0 0.0
2017-Feb-13 12:29N 34°42' W 076°41'0 0.0
2017-Feb-13 11:32N 34°42' W 076°41'0 0.0
2017-Feb-13 10:32N 34°42' W 076°41'0 0.0
2017-Feb-13 09:32N 34°42' W 076°41'0 0.0
2017-Feb-13 08:29N 34°42' W 076°41'0 0.0
2017-Feb-13 07:26N 34°42' W 076°41'0 0.0
2017-Feb-13 06:32N 34°42' W 076°41'0 0.0
2017-Feb-13 05:32N 34°42' W 076°41'0 0.0
2017-Feb-13 04:31N 34°42' W 076°41'0 0.0
2017-Feb-13 03:32N 34°42' W 076°41'0 0.0
2017-Feb-13 02:32N 34°42' W 076°41'0 0.0
2017-Feb-13 01:32N 34°42' W 076°41'0 0.0
2017-Feb-13 00:29N 34°42' W 076°41'0 0.0
2017-Feb-12 23:32N 34°42' W 076°41'0 0.0
2017-Feb-12 22:32N 34°42' W 076°41'0 0.0
2017-Feb-12 21:32N 34°42' W 076°41'0 0.0
2017-Feb-12 20:32N 34°42' W 076°41'0 0.0
2017-Feb-12 19:29N 34°42' W 076°41'0 0.0
2017-Feb-12 18:32N 34°42' W 076°41'0 0.0
2017-Feb-12 17:32N 34°42' W 076°41'0 0.0
2017-Feb-12 16:32N 34°42' W 076°41'0 0.0
2017-Feb-12 15:32N 34°42' W 076°41'0 0.0
2017-Feb-12 14:32N 34°42' W 076°41'0 0.0
2017-Feb-12 13:29N 34°42' W 076°41'0 0.0
2017-Feb-12 12:32N 34°42' W 076°41'0 0.0
2017-Feb-12 11:32N 34°42' W 076°41'0 0.0
2017-Feb-12 10:29N 34°42' W 076°41'0 0.0
2017-Feb-12 09:32N 34°42' W 076°41'0 0.0
2017-Feb-12 08:32N 34°42' W 076°41'0 0.0
2017-Feb-12 07:32N 34°42' W 076°41'0 0.0
2017-Feb-12 06:32N 34°42' W 076°41'0 0.0
2017-Feb-12 05:29N 34°42' W 076°41'0 0.0
2017-Feb-12 04:29N 34°42' W 076°41'0 0.0
2017-Feb-12 03:32N 34°42' W 076°41'0 0.0
2017-Feb-12 02:32N 34°42' W 076°41'0 0.0
2017-Feb-12 01:32N 34°42' W 076°41'0 0.0
2017-Feb-12 00:29N 34°42' W 076°41'0 0.0
2017-Feb-11 23:32N 34°42' W 076°41'0 0.0
2017-Feb-11 22:32N 34°42' W 076°41'0 0.0
2017-Feb-11 21:32N 34°42' W 076°41'0 0.0
2017-Feb-11 20:32N 34°42' W 076°41'0 0.0
2017-Feb-11 19:32N 34°42' W 076°41'0 0.0
2017-Feb-11 18:32N 34°42' W 076°41'0 0.0
2017-Feb-11 17:32N 34°42' W 076°41'0 0.0
2017-Feb-11 16:32N 34°42' W 076°41'0 0.0
2017-Feb-11 15:32N 34°42' W 076°41'0 0.0
2017-Feb-11 14:29N 34°42' W 076°41'0 0.0
2017-Feb-11 13:32N 34°42' W 076°41'0 0.0
2017-Feb-11 12:29N 34°42' W 076°41'0 0.0
2017-Feb-11 11:32N 34°42' W 076°41'0 0.0
2017-Feb-11 10:32N 34°42' W 076°41'0 0.0
2017-Feb-11 09:32N 34°42' W 076°41'0 0.0
2017-Feb-11 08:32N 34°42' W 076°41'0 0.0
2017-Feb-11 07:32N 34°42' W 076°41'0 0.0
2017-Feb-11 06:32N 34°42' W 076°41'0 0.0
2017-Feb-11 05:32N 34°42' W 076°41'0 0.0
2017-Feb-11 04:32N 34°42' W 076°41'0 0.0
2017-Feb-11 03:29N 34°42' W 076°41'0 0.0
2017-Feb-11 02:32N 34°42' W 076°41'0 0.0
2017-Feb-11 01:32N 34°42' W 076°41'0 0.0
2017-Feb-11 00:32N 34°42' W 076°41'0 0.0
2017-Feb-10 23:32N 34°42' W 076°41'0 0.0
2017-Feb-10 22:32N 34°42' W 076°41'0 0.0
2017-Feb-10 21:32N 34°42' W 076°41'0 0.0
2017-Feb-10 20:32N 34°42' W 076°41'0 0.0
2017-Feb-10 19:33N 34°42' W 076°41'0 0.0
2017-Feb-10 18:29N 34°42' W 076°41'0 0.0
2017-Feb-10 17:32N 34°42' W 076°41'0 0.0
2017-Feb-10 16:32N 34°42' W 076°41'0 0.0
2017-Feb-10 15:26N 34°42' W 076°41'0 0.0
2017-Feb-10 14:32N 34°42' W 076°41'0 0.0
2017-Feb-10 13:32N 34°42' W 076°41'0 0.0
2017-Feb-10 12:32N 34°42' W 076°41'0 0.0
2017-Feb-10 11:32N 34°42' W 076°41'0 0.0
2017-Feb-10 10:32N 34°42' W 076°41'0 0.0
2017-Feb-10 09:32N 34°42' W 076°41'0 0.0
2017-Feb-10 08:33N 34°42' W 076°41'0 0.0
2017-Feb-10 07:32N 34°42' W 076°41'0 0.0
2017-Feb-10 06:32N 34°42' W 076°41'0 0.0
2017-Feb-10 05:32N 34°42' W 076°41'0 0.0
2017-Feb-10 04:32N 34°42' W 076°41'0 0.0
2017-Feb-10 03:32N 34°42' W 076°41'0 0.0
2017-Feb-10 02:32N 34°42' W 076°41'0 0.0
2017-Feb-10 01:32N 34°42' W 076°41'0 0.0
2017-Feb-10 00:32N 34°42' W 076°41'0 0.0
2017-Feb-09 23:33N 34°42' W 076°41'0 0.0
2017-Feb-09 22:32N 34°42' W 076°41'0 0.0
2017-Feb-09 21:32N 34°42' W 076°41'0 0.0
2017-Feb-09 20:32N 34°42' W 076°41'0 0.0
2017-Feb-09 19:32N 34°42' W 076°41'0 0.0
2017-Feb-09 18:34N 34°42' W 076°41'4 3.6
2017-Feb-09 17:34N 34°38' W 076°41'  
Track history (hours):
 
Tides and Currents Weather Stations Pressure Air Temp Water Temp Dewpoint Dewpoint Depression Visibility Wind Speed Wind Dir Waves Ship Positions

USCGC Elm

Last reported at 2017-Feb-17 19:26 UTC. Time now 2017-Feb-26 23:51 UTC.
Position N 34°42' W 076°41'.
Warning: this ship's position is 9 days out of date.

Length 68 m; draft 4 m.

Type: Military. MMSI: 366951000.

Date/timePositionNaut miles runAvg speedWind from/ knotsBaromVisibWave heightAir tempDewpointWater temp
2017-Feb-17 19:26N 34°42' W 076°41'0 0.0
2017-Feb-17 18:32N 34°42' W 076°41'0 0.0
2017-Feb-17 17:32N 34°42' W 076°41'0 0.0
2017-Feb-17 16:32N 34°42' W 076°41'0 0.0
2017-Feb-17 15:32N 34°42' W 076°41'0 0.0
2017-Feb-17 14:32N 34°42' W 076°41'0 0.0
2017-Feb-17 13:32N 34°42' W 076°41'0 0.0
2017-Feb-17 12:32N 34°42' W 076°41'0 0.0
2017-Feb-17 11:28N 34°42' W 076°41'0 0.0
2017-Feb-17 10:32N 34°42' W 076°41'0 0.0
2017-Feb-17 09:32N 34°42' W 076°41'0 0.0
2017-Feb-17 08:32N 34°42' W 076°41'0 0.0
2017-Feb-17 07:32N 34°42' W 076°41'0 0.0
2017-Feb-17 06:32N 34°42' W 076°41'0 0.0
2017-Feb-17 05:32N 34°42' W 076°41'0 0.0
2017-Feb-17 04:32N 34°42' W 076°41'0 0.0
2017-Feb-17 03:32N 34°42' W 076°41'0 0.0
2017-Feb-17 02:32N 34°42' W 076°41'0 0.0
2017-Feb-17 01:32N 34°42' W 076°41'0 0.0
2017-Feb-17 00:32N 34°42' W 076°41'0 0.0
2017-Feb-16 23:32N 34°42' W 076°41'0 0.0
2017-Feb-16 22:32N 34°42' W 076°41'0 0.0
2017-Feb-16 21:32N 34°42' W 076°41'0 0.0
2017-Feb-16 20:32N 34°42' W 076°41'0 0.0
2017-Feb-16 19:23N 34°42' W 076°41'0 0.0
2017-Feb-16 18:32N 34°42' W 076°41'0 0.0
2017-Feb-16 17:32N 34°42' W 076°41'0 0.0
2017-Feb-16 16:32N 34°42' W 076°41'0 0.0
2017-Feb-16 15:32N 34°42' W 076°41'0 0.0
2017-Feb-16 14:32N 34°42' W 076°41'0 0.0
2017-Feb-16 13:32N 34°42' W 076°41'0 0.0
2017-Feb-16 12:31N 34°42' W 076°41'0 0.0
2017-Feb-16 11:30N 34°42' W 076°41'0 0.0
2017-Feb-16 10:31N 34°42' W 076°41'0 0.0
2017-Feb-16 09:31N 34°42' W 076°41'0 0.0
2017-Feb-16 08:31N 34°42' W 076°41'0 0.0
2017-Feb-16 07:31N 34°42' W 076°41'0 0.0
2017-Feb-16 06:31N 34°42' W 076°41'0 0.0
2017-Feb-16 05:31N 34°42' W 076°41'0 0.0
2017-Feb-16 04:31N 34°42' W 076°41'0 0.0
2017-Feb-16 03:31N 34°42' W 076°41'0 0.0
2017-Feb-16 02:31N 34°42' W 076°41'0 0.0
2017-Feb-16 01:31N 34°42' W 076°41'0 0.0
2017-Feb-16 00:28N 34°42' W 076°41'0 0.0
2017-Feb-15 23:31N 34°42' W 076°41'0 0.0
2017-Feb-15 22:31N 34°42' W 076°41'0 0.0
2017-Feb-15 21:31N 34°42' W 076°41'0 0.0
2017-Feb-15 20:31N 34°42' W 076°41'0 0.0
2017-Feb-15 19:31N 34°42' W 076°41'0 0.0
2017-Feb-15 18:25N 34°42' W 076°41'0 0.0
2017-Feb-15 17:31N 34°42' W 076°41'0 0.0
2017-Feb-15 16:31N 34°42' W 076°41'0 0.0
2017-Feb-15 15:32N 34°42' W 076°41'0 0.0
2017-Feb-15 14:29N 34°42' W 076°41'0 0.0
2017-Feb-15 13:32N 34°42' W 076°41'0 0.0
2017-Feb-15 12:32N 34°42' W 076°41'0 0.0
2017-Feb-15 11:32N 34°42' W 076°41'0 0.0
2017-Feb-15 10:32N 34°42' W 076°41'0 0.0
2017-Feb-15 09:32N 34°42' W 076°41'0 0.0
2017-Feb-15 08:32N 34°42' W 076°41'0 0.0
2017-Feb-15 07:32N 34°42' W 076°41'0 0.0
2017-Feb-15 06:32N 34°42' W 076°41'0 0.0
2017-Feb-15 05:32N 34°42' W 076°41'0 0.0
2017-Feb-15 04:32N 34°42' W 076°41'0 0.0
2017-Feb-15 03:32N 34°42' W 076°41'0 0.0
2017-Feb-15 02:32N 34°42' W 076°41'0 0.0
2017-Feb-15 01:32N 34°42' W 076°41'0 0.0
2017-Feb-15 00:32N 34°42' W 076°41'0 0.0
2017-Feb-14 23:32N 34°42' W 076°41'0 0.0
2017-Feb-14 22:32N 34°42' W 076°41'0 0.0
2017-Feb-14 21:32N 34°42' W 076°41'0 0.0
2017-Feb-14 20:32N 34°42' W 076°41'1 1.5
2017-Feb-14 19:33N 34°41' W 076°40'1212.2
2017-Feb-14 18:33N 34°29' W 076°44'1 0.6
2017-Feb-14 17:33N 34°28' W 076°44'3 2.7
2017-Feb-14 16:33N 34°31' W 076°44'3 3.4
2017-Feb-14 15:33N 34°28' W 076°45'1010.5
2017-Feb-14 14:33N 34°38' W 076°42'4 4.2
2017-Feb-14 13:32N 34°42' W 076°41'0 0.0
2017-Feb-14 12:32N 34°42' W 076°41'0 0.0
2017-Feb-14 11:32N 34°42' W 076°41'0 0.0
2017-Feb-14 10:32N 34°42' W 076°41'0 0.0
2017-Feb-14 09:29N 34°42' W 076°41'0 0.0
2017-Feb-14 08:32N 34°42' W 076°41'0 0.0
2017-Feb-14 07:32N 34°42' W 076°41'0 0.0
2017-Feb-14 06:32N 34°42' W 076°41'0 0.0
2017-Feb-14 05:32N 34°42' W 076°41'0 0.0
2017-Feb-14 04:32N 34°42' W 076°41'0 0.0
2017-Feb-14 03:31N 34°42' W 076°41'0 0.0
2017-Feb-14 02:31N 34°42' W 076°41'0 0.0
2017-Feb-14 01:32N 34°42' W 076°41'0 0.0
2017-Feb-14 00:32N 34°42' W 076°41'0 0.0
2017-Feb-13 23:32N 34°42' W 076°41'0 0.0
2017-Feb-13 22:32N 34°42' W 076°41'0 0.0
2017-Feb-13 21:32N 34°42' W 076°41'0 0.0
2017-Feb-13 20:32N 34°42' W 076°41'0 0.0
2017-Feb-13 19:32N 34°42' W 076°41'0 0.0
2017-Feb-13 18:32N 34°42' W 076°41'0 0.0
2017-Feb-13 17:32N 34°42' W 076°41'0 0.0
2017-Feb-13 16:32N 34°42' W 076°41'0 0.0
2017-Feb-13 15:31N 34°42' W 076°41'0 0.0
2017-Feb-13 14:32N 34°42' W 076°41'0 0.0
2017-Feb-13 13:32N 34°42' W 076°41'0 0.0
2017-Feb-13 12:29N 34°42' W 076°41'0 0.0
2017-Feb-13 11:32N 34°42' W 076°41'0 0.0
2017-Feb-13 10:32N 34°42' W 076°41'0 0.0
2017-Feb-13 09:32N 34°42' W 076°41'0 0.0
2017-Feb-13 08:29N 34°42' W 076°41'0 0.0
2017-Feb-13 07:26N 34°42' W 076°41'0 0.0
2017-Feb-13 06:32N 34°42' W 076°41'0 0.0
2017-Feb-13 05:32N 34°42' W 076°41'0 0.0
2017-Feb-13 04:31N 34°42' W 076°41'0 0.0
2017-Feb-13 03:32N 34°42' W 076°41'0 0.0
2017-Feb-13 02:32N 34°42' W 076°41'0 0.0
2017-Feb-13 01:32N 34°42' W 076°41'0 0.0
2017-Feb-13 00:29N 34°42' W 076°41'0 0.0
2017-Feb-12 23:32N 34°42' W 076°41'0 0.0
2017-Feb-12 22:32N 34°42' W 076°41'0 0.0
2017-Feb-12 21:32N 34°42' W 076°41'0 0.0
2017-Feb-12 20:32N 34°42' W 076°41'0 0.0
2017-Feb-12 19:29N 34°42' W 076°41'0 0.0
2017-Feb-12 18:32N 34°42' W 076°41'0 0.0
2017-Feb-12 17:32N 34°42' W 076°41'0 0.0
2017-Feb-12 16:32N 34°42' W 076°41'0 0.0
2017-Feb-12 15:32N 34°42' W 076°41'0 0.0
2017-Feb-12 14:32N 34°42' W 076°41'0 0.0
2017-Feb-12 13:29N 34°42' W 076°41'0 0.0
2017-Feb-12 12:32N 34°42' W 076°41'0 0.0
2017-Feb-12 11:32N 34°42' W 076°41'0 0.0
2017-Feb-12 10:29N 34°42' W 076°41'0 0.0
2017-Feb-12 09:32N 34°42' W 076°41'0 0.0
2017-Feb-12 08:32N 34°42' W 076°41'0 0.0
2017-Feb-12 07:32N 34°42' W 076°41'0 0.0
2017-Feb-12 06:32N 34°42' W 076°41'0 0.0
2017-Feb-12 05:29N 34°42' W 076°41'0 0.0
2017-Feb-12 04:29N 34°42' W 076°41'0 0.0
2017-Feb-12 03:32N 34°42' W 076°41'0 0.0
2017-Feb-12 02:32N 34°42' W 076°41'0 0.0
2017-Feb-12 01:32N 34°42' W 076°41'0 0.0
2017-Feb-12 00:29N 34°42' W 076°41'0 0.0
2017-Feb-11 23:32N 34°42' W 076°41'0 0.0
2017-Feb-11 22:32N 34°42' W 076°41'0 0.0
2017-Feb-11 21:32N 34°42' W 076°41'0 0.0
2017-Feb-11 20:32N 34°42' W 076°41'0 0.0
2017-Feb-11 19:32N 34°42' W 076°41'0 0.0
2017-Feb-11 18:32N 34°42' W 076°41'0 0.0
2017-Feb-11 17:32N 34°42' W 076°41'0 0.0
2017-Feb-11 16:32N 34°42' W 076°41'0 0.0
2017-Feb-11 15:32N 34°42' W 076°41'0 0.0
2017-Feb-11 14:29N 34°42' W 076°41'0 0.0
2017-Feb-11 13:32N 34°42' W 076°41'0 0.0
2017-Feb-11 12:29N 34°42' W 076°41'0 0.0
2017-Feb-11 11:32N 34°42' W 076°41'0 0.0
2017-Feb-11 10:32N 34°42' W 076°41'0 0.0
2017-Feb-11 09:32N 34°42' W 076°41'0 0.0
2017-Feb-11 08:32N 34°42' W 076°41'0 0.0
2017-Feb-11 07:32N 34°42' W 076°41'0 0.0
2017-Feb-11 06:32N 34°42' W 076°41'0 0.0
2017-Feb-11 05:32N 34°42' W 076°41'0 0.0
2017-Feb-11 04:32N 34°42' W 076°41'0 0.0
2017-Feb-11 03:29N 34°42' W 076°41'0 0.0
2017-Feb-11 02:32N 34°42' W 076°41'0 0.0
2017-Feb-11 01:32N 34°42' W 076°41'0 0.0
2017-Feb-11 00:32N 34°42' W 076°41'0 0.0
2017-Feb-10 23:32N 34°42' W 076°41'0 0.0
2017-Feb-10 22:32N 34°42' W 076°41'0 0.0
2017-Feb-10 21:32N 34°42' W 076°41'0 0.0
2017-Feb-10 20:32N 34°42' W 076°41'0 0.0
2017-Feb-10 19:33N 34°42' W 076°41'0 0.0
2017-Feb-10 18:29N 34°42' W 076°41'0 0.0
2017-Feb-10 17:32N 34°42' W 076°41'0 0.0
2017-Feb-10 16:32N 34°42' W 076°41'0 0.0
2017-Feb-10 15:26N 34°42' W 076°41'0 0.0
2017-Feb-10 14:32N 34°42' W 076°41'0 0.0
2017-Feb-10 13:32N 34°42' W 076°41'0 0.0
2017-Feb-10 12:32N 34°42' W 076°41'0 0.0
2017-Feb-10 11:32N 34°42' W 076°41'0 0.0
2017-Feb-10 10:32N 34°42' W 076°41'0 0.0
2017-Feb-10 09:32N 34°42' W 076°41'0 0.0
2017-Feb-10 08:33N 34°42' W 076°41'0 0.0
2017-Feb-10 07:32N 34°42' W 076°41'0 0.0
2017-Feb-10 06:32N 34°42' W 076°41'0 0.0
2017-Feb-10 05:32N 34°42' W 076°41'0 0.0
2017-Feb-10 04:32N 34°42' W 076°41'0 0.0
2017-Feb-10 03:32N 34°42' W 076°41'0 0.0
2017-Feb-10 02:32N 34°42' W 076°41'0 0.0
2017-Feb-10 01:32N 34°42' W 076°41'0 0.0
2017-Feb-10 00:32N 34°42' W 076°41'0 0.0
2017-Feb-09 23:33N 34°42' W 076°41'0 0.0
2017-Feb-09 22:32N 34°42' W 076°41'0 0.0
2017-Feb-09 21:32N 34°42' W 076°41'0 0.0
2017-Feb-09 20:32N 34°42' W 076°41'0 0.0
2017-Feb-09 19:32N 34°42' W 076°41'0 0.0
2017-Feb-09 18:34N 34°42' W 076°41'4 3.6
2017-Feb-09 17:34N 34°38' W 076°41'  

Dump ship's entire track history